Time;durP1;ratioP1;P1;durP2;ratioP2;P2;SDS_P1;SDS_P2;PMS_P1;PMS_P2;Temp;Humidity;BMP_temperature;BMP_pressure;BME280_temperature;BME280_humidity;BME280_pressure;Samples;Min_cycle;Max_cycle;Signal;HPM_P1;HPM_P2
2023/04/22 00:01:41;;;;;;;5.60;3.83;;;;;;;;;;5084725;28;20239;-69
2023/04/22 00:04:07;;;;;;;3.58;3.38;;;;;;;;;;5084613;28;20454;-69
2023/04/22 00:06:34;;;;;;;3.63;3.33;;;;;;;;;;5084481;28;20208;-69
2023/04/22 00:09:00;;;;;;;3.42;3.20;;;;;;;;;;5084636;28;20225;-69
2023/04/22 00:11:28;;;;;;;4.15;3.83;;;;;;;;;;5084505;28;20196;-69
2023/04/22 00:13:54;;;;;;;4.00;3.80;;;;;;;;;;5084406;28;20246;-69
2023/04/22 00:16:20;;;;;;;4.65;3.75;;;;;;;;;;5084283;28;20402;-69
2023/04/22 00:18:46;;;;;;;4.35;3.83;;;;;;;;;;5084453;28;20402;-69
2023/04/22 00:21:13;;;;;;;3.78;3.58;;;;;;;;;;5084493;28;20532;-69
2023/04/22 00:23:39;;;;;;;4.93;3.90;;;;;;;;;;5084434;28;20430;-69
2023/04/22 00:26:05;;;;;;;5.10;3.40;;;;;;;;;;5084398;28;20516;-69
2023/04/22 00:28:33;;;;;;;5.38;4.00;;;;;;;;;;5083852;28;20220;-69
2023/04/22 00:31:01;;;;;;;4.47;4.10;;;;;;;;;;5084120;28;20243;-69
2023/04/22 00:33:27;;;;;;;5.22;4.38;;;;;;;;;;5084216;28;20206;-69
2023/04/22 00:35:54;;;;;;;4.60;4.20;;;;;;;;;;5084412;28;20204;-69
2023/04/22 00:38:20;;;;;;;4.50;4.10;;;;;;;;;;5084161;28;20228;-69
2023/04/22 00:40:47;;;;;;;5.00;4.30;;;;;;;;;;5084047;28;20219;-69
2023/04/22 00:43:13;;;;;;;5.07;4.53;;;;;;;;;;5084051;28;20333;-69
2023/04/22 00:45:42;;;;;;;4.40;4.03;;;;;;;;;;5083840;28;20208;-69
2023/04/22 00:48:08;;;;;;;4.60;4.32;;;;;;;;;;5083900;28;20510;-69
2023/04/22 00:50:34;;;;;;;4.72;4.32;;;;;;;;;;5083906;28;20234;-69
2023/04/22 00:53:00;;;;;;;4.15;3.85;;;;;;;;;;5083955;28;20397;-69
2023/04/22 00:55:27;;;;;;;4.53;4.22;;;;;;;;;;5083752;28;20437;-69
2023/04/22 00:57:54;;;;;;;4.50;4.20;;;;;;;;;;5083616;28;20200;-69
2023/04/22 01:00:25;;;;;;;5.00;4.53;;;;;;;;;;5083502;28;20578;-69
2023/04/22 01:02:53;;;;;;;4.25;3.97;;;;;;;;;;5083142;28;20197;-69
2023/04/22 01:05:20;;;;;;;4.40;4.13;;;;;;;;;;5083556;28;20368;-69
2023/04/22 01:07:46;;;;;;;9.35;4.47;;;;;;;;;;5083520;28;20501;-69
2023/04/22 01:10:12;;;;;;;4.90;4.60;;;;;;;;;;5083451;28;20231;-69
2023/04/22 01:12:39;;;;;;;5.07;4.68;;;;;;;;;;5083371;28;20235;-69
2023/04/22 01:15:05;;;;;;;5.00;4.60;;;;;;;;;;5083393;28;20264;-69
2023/04/22 01:17:32;;;;;;;4.60;4.30;;;;;;;;;;5083203;28;20257;-69
2023/04/22 01:20:03;;;;;;;5.05;4.65;;;;;;;;;;5083086;28;20263;-69
2023/04/22 01:22:32;;;;;;;4.88;4.47;;;;;;;;;;5083121;28;20523;-69
2023/04/22 01:24:59;;;;;;;4.90;4.60;;;;;;;;;;5083153;28;20257;-69
2023/04/22 01:27:26;;;;;;;4.78;4.38;;;;;;;;;;5083069;28;20435;-69
2023/04/22 01:29:52;;;;;;;5.18;4.88;;;;;;;;;;5083147;28;20203;-69
2023/04/22 01:32:19;;;;;;;5.00;4.60;;;;;;;;;;5082954;28;20495;-69
2023/04/22 01:34:45;;;;;;;5.13;4.72;;;;;;;;;;5083347;28;20384;-69
2023/04/22 01:37:11;;;;;;;4.65;4.35;;;;;;;;;;5082911;28;20229;-69
2023/04/22 01:39:38;;;;;;;6.68;4.60;;;;;;;;;;5083209;28;20211;-69
2023/04/22 01:42:05;;;;;;;5.53;5.05;;;;;;;;;;5082971;28;20254;-69
2023/04/22 01:44:32;;;;;;;5.28;4.95;;;;;;;;;;5082743;28;20207;-69
2023/04/22 01:46:58;;;;;;;5.32;4.60;;;;;;;;;;5082481;28;20193;-69
2023/04/22 01:49:24;;;;;;;5.35;4.78;;;;;;;;;;5082470;28;20204;-69
2023/04/22 01:51:51;;;;;;;4.78;4.50;;;;;;;;;;5082565;28;20192;-69
2023/04/22 01:54:17;;;;;;;5.00;4.65;;;;;;;;;;5082629;28;20200;-69
2023/04/22 01:56:48;;;;;;;4.70;4.40;;;;;;;;;;5082571;28;20420;-69
2023/04/22 01:59:16;;;;;;;5.32;4.82;;;;;;;;;;5082418;28;20200;-69
2023/04/22 02:01:42;;;;;;;5.88;5.38;;;;;;;;;;5082364;28;20238;-69
2023/04/22 02:04:08;;;;;;;5.53;5.13;;;;;;;;;;5082418;28;20423;-69
2023/04/22 02:06:35;;;;;;;5.72;5.22;;;;;;;;;;5082408;28;20280;-69
2023/04/22 02:09:01;;;;;;;5.45;4.95;;;;;;;;;;5082150;28;20261;-69
2023/04/22 02:11:27;;;;;;;5.45;4.97;;;;;;;;;;5082256;28;20197;-69
2023/04/22 02:13:53;;;;;;;5.30;4.90;;;;;;;;;;5082225;28;20499;-69
2023/04/22 02:16:21;;;;;;;6.38;5.80;;;;;;;;;;5082147;28;20377;-69
2023/04/22 02:18:47;;;;;;;5.85;5.45;;;;;;;;;;5082113;28;20246;-69
2023/04/22 02:21:14;;;;;;;6.55;5.95;;;;;;;;;;5082629;28;20213;-69
2023/04/22 02:23:40;;;;;;;6.20;5.65;;;;;;;;;;5082064;28;20227;-69
2023/04/22 02:26:07;;;;;;;7.47;5.53;;;;;;;;;;5082106;28;20196;-69
2023/04/22 02:28:33;;;;;;;5.82;5.40;;;;;;;;;;5081754;28;20231;-69
2023/04/22 02:31:00;;;;;;;6.07;5.55;;;;;;;;;;5081974;28;20193;-69
2023/04/22 02:33:27;;;;;;;6.55;6.05;;;;;;;;;;5081910;28;20250;-69
2023/04/22 02:35:54;;;;;;;5.88;5.47;;;;;;;;;;5082148;28;20210;-69
2023/04/22 02:38:20;;;;;;;5.82;5.43;;;;;;;;;;5081727;28;20426;-69
2023/04/22 02:40:46;;;;;;;6.55;6.05;;;;;;;;;;5081897;28;20216;-69
2023/04/22 02:43:13;;;;;;;8.07;5.72;;;;;;;;;;5081864;28;20196;-69
2023/04/22 02:45:39;;;;;;;5.85;5.07;;;;;;;;;;5081688;28;20526;-69
2023/04/22 02:48:05;;;;;;;5.80;5.30;;;;;;;;;;5081832;28;20269;-69
2023/04/22 02:50:33;;;;;;;6.20;5.65;;;;;;;;;;5081592;28;20216;-69
2023/04/22 02:53:00;;;;;;;5.10;4.78;;;;;;;;;;5081875;28;20197;-69
2023/04/22 02:55:27;;;;;;;5.07;4.68;;;;;;;;;;5081715;28;20207;-69
2023/04/22 02:57:53;;;;;;;5.30;4.90;;;;;;;;;;5081747;28;20538;-69
2023/04/22 03:00:19;;;;;;;7.53;5.32;;;;;;;;;;5081470;28;20519;-69
2023/04/22 03:02:46;;;;;;;6.05;5.63;;;;;;;;;;5081910;28;20399;-69
2023/04/22 03:05:12;;;;;;;6.55;5.95;;;;;;;;;;5081782;28;20420;-69
2023/04/22 03:07:39;;;;;;;8.85;6.07;;;;;;;;;;5081422;28;20543;-69
2023/04/22 03:10:06;;;;;;;5.55;5.05;;;;;;;;;;5081798;28;20195;-69
2023/04/22 03:12:33;;;;;;;8.38;5.53;;;;;;;;;;5081410;28;20424;-69
2023/04/22 03:14:59;;;;;;;5.43;5.00;;;;;;;;;;5081461;28;20436;-69
2023/04/22 03:17:26;;;;;;;6.20;5.80;;;;;;;;;;5081396;28;20204;-69
2023/04/22 03:19:53;;;;;;;5.97;5.45;;;;;;;;;;5081617;28;20197;-69
2023/04/22 03:22:19;;;;;;;5.78;5.32;;;;;;;;;;5081208;28;20212;-69
2023/04/22 03:24:46;;;;;;;5.80;5.40;;;;;;;;;;5073539;28;20501;-69
2023/04/22 03:27:13;;;;;;;5.82;5.43;;;;;;;;;;5084490;28;20220;-69
2023/04/22 03:29:39;;;;;;;6.20;5.70;;;;;;;;;;5085579;28;20512;-69
2023/04/22 03:32:05;;;;;;;5.55;4.93;;;;;;;;;;5085582;28;20420;-69
2023/04/22 03:34:31;;;;;;;6.22;5.70;;;;;;;;;;5085553;28;20204;-69
2023/04/22 03:36:58;;;;;;;7.53;6.15;;;;;;;;;;5085052;28;20371;-69
2023/04/22 03:39:24;;;;;;;7.60;6.00;;;;;;;;;;5085113;28;20432;-69
2023/04/22 03:41:52;;;;;;;6.20;5.60;;;;;;;;;;5085413;28;20224;-69
2023/04/22 03:44:18;;;;;;;9.60;5.93;;;;;;;;;;5085040;28;20196;-69
2023/04/22 03:46:44;;;;;;;7.35;5.93;;;;;;;;;;5085071;28;20546;-69
2023/04/22 03:49:11;;;;;;;6.05;5.55;;;;;;;;;;5084976;28;20523;-69
2023/04/22 03:51:37;;;;;;;6.78;6.18;;;;;;;;;;5084752;28;20244;-69
2023/04/22 03:54:03;;;;;;;6.22;5.78;;;;;;;;;;5084925;28;20200;-69
2023/04/22 03:56:30;;;;;;;7.03;5.88;;;;;;;;;;5084553;28;20200;-69
2023/04/22 03:58:57;;;;;;;8.65;5.97;;;;;;;;;;5084647;28;20203;-69
2023/04/22 04:01:24;;;;;;;6.30;5.63;;;;;;;;;;5084783;28;20450;-69
2023/04/22 04:03:50;;;;;;;5.38;4.97;;;;;;;;;;5084585;28;20197;-68
2023/04/22 04:06:16;;;;;;;5.15;4.70;;;;;;;;;;5084778;28;20196;-68
2023/04/22 04:08:43;;;;;;;6.20;5.65;;;;;;;;;;5084276;28;20203;-68
2023/04/22 04:11:09;;;;;;;6.30;5.68;;;;;;;;;;5084521;28;20192;-68
2023/04/22 04:13:35;;;;;;;6.72;5.30;;;;;;;;;;5084476;28;20204;-68
2023/04/22 04:16:03;;;;;;;5.57;5.07;;;;;;;;;;5084664;28;20207;-69
2023/04/22 04:18:29;;;;;;;6.82;5.55;;;;;;;;;;5084314;28;20505;-69
2023/04/22 04:20:56;;;;;;;5.75;5.28;;;;;;;;;;5084251;28;20374;-69
2023/04/22 04:23:22;;;;;;;7.32;5.43;;;;;;;;;;5084255;28;20524;-69
2023/04/22 04:25:48;;;;;;;5.75;5.25;;;;;;;;;;5076035;28;20196;-69
2023/04/22 04:28:16;;;;;;;5.65;5.15;;;;;;;;;;5084008;28;20216;-69
2023/04/22 04:30:42;;;;;;;5.40;4.90;;;;;;;;;;5084205;28;20205;-69
2023/04/22 04:33:10;;;;;;;7.50;4.97;;;;;;;;;;5084208;28;20200;-69
2023/04/22 04:35:37;;;;;;;5.95;5.32;;;;;;;;;;5084172;28;20231;-69
2023/04/22 04:38:04;;;;;;;6.07;5.10;;;;;;;;;;5082821;28;20196;-69
2023/04/22 04:40:30;;;;;;;5.35;4.95;;;;;;;;;;5083863;28;20251;-69
2023/04/22 04:42:57;;;;;;;7.13;4.88;;;;;;;;;;5084017;28;20248;-69
2023/04/22 04:45:24;;;;;;;6.88;5.65;;;;;;;;;;5084074;28;20381;-69
2023/04/22 04:47:51;;;;;;;7.05;5.65;;;;;;;;;;5083636;28;20259;-69
2023/04/22 04:50:19;;;;;;;6.28;5.68;;;;;;;;;;5083692;28;20496;-69
2023/04/22 04:52:47;;;;;;;7.40;5.97;;;;;;;;;;5083601;28;20192;-69
2023/04/22 04:55:13;;;;;;;6.03;5.55;;;;;;;;;;5083732;28;20579;-69
2023/04/22 04:57:40;;;;;;;8.43;5.63;;;;;;;;;;5083525;28;20268;-69
2023/04/22 05:00:07;;;;;;;5.95;5.45;;;;;;;;;;5083927;28;20197;-69
2023/04/22 05:02:33;;;;;;;7.53;5.75;;;;;;;;;;5083623;28;20418;-69
2023/04/22 05:04:59;;;;;;;6.15;5.50;;;;;;;;;;5083570;28;20469;-69
2023/04/22 05:07:27;;;;;;;5.95;5.38;;;;;;;;;;5083271;28;20508;-69
2023/04/22 05:09:53;;;;;;;6.68;5.28;;;;;;;;;;5083625;28;20203;-69
2023/04/22 05:12:20;;;;;;;6.88;6.18;;;;;;;;;;5083809;28;20196;-69
2023/04/22 05:14:46;;;;;;;6.43;5.82;;;;;;;;;;5083297;28;20223;-69
2023/04/22 05:17:13;;;;;;;6.40;5.70;;;;;;;;;;5083033;28;20374;-69
2023/04/22 05:19:39;;;;;;;6.18;5.78;;;;;;;;;;5083344;28;20414;-69
2023/04/22 05:22:06;;;;;;;7.78;6.20;;;;;;;;;;5083066;28;20219;-69
2023/04/22 05:24:34;;;;;;;6.55;6.03;;;;;;;;;;5083653;28;20422;-69
2023/04/22 05:27:00;;;;;;;5.88;5.47;;;;;;;;;;5083016;28;20211;-69
2023/04/22 05:29:27;;;;;;;6.40;5.90;;;;;;;;;;5082970;28;20203;-69
2023/04/22 05:31:53;;;;;;;6.30;5.72;;;;;;;;;;5083227;28;20192;-69
2023/04/22 05:34:19;;;;;;;8.30;5.82;;;;;;;;;;5083069;28;20197;-69
2023/04/22 05:36:45;;;;;;;6.95;6.35;;;;;;;;;;5082932;28;20215;-69
2023/04/22 05:39:12;;;;;;;5.93;5.50;;;;;;;;;;5082926;28;20499;-69
2023/04/22 05:41:40;;;;;;;9.57;6.90;;;;;;;;;;5082935;28;20220;-69
2023/04/22 05:44:06;;;;;;;8.10;7.30;;;;;;;;;;5082923;28;20196;-69
2023/04/22 05:46:32;;;;;;;12.80;9.05;;;;;;;;;;5082838;28;20200;-69
2023/04/22 05:48:59;;;;;;;6.75;6.22;;;;;;;;;;5082496;28;20234;-69
2023/04/22 05:51:25;;;;;;;12.20;7.63;;;;;;;;;;5083190;28;20374;-69
2023/04/22 05:53:51;;;;;;;13.05;7.22;;;;;;;;;;5083152;28;20227;-69
2023/04/22 05:56:18;;;;;;;9.98;7.13;;;;;;;;;;5083328;28;20250;-69
2023/04/22 05:58:45;;;;;;;9.18;6.53;;;;;;;;;;5082388;28;20204;-69
2023/04/22 06:01:11;;;;;;;9.60;6.88;;;;;;;;;;5082799;28;20196;-69
2023/04/22 06:03:38;;;;;;;12.40;6.82;;;;;;;;;;5082509;28;20220;-69
2023/04/22 06:06:05;;;;;;;7.70;6.28;;;;;;;;;;5083194;28;20200;-69
2023/04/22 06:08:31;;;;;;;7.47;6.53;;;;;;;;;;5082857;28;20196;-69
2023/04/22 06:10:57;;;;;;;7.53;6.90;;;;;;;;;;5082807;28;20196;-69
2023/04/22 06:13:24;;;;;;;8.55;7.45;;;;;;;;;;5082803;28;20436;-69
2023/04/22 06:15:51;;;;;;;7.38;6.55;;;;;;;;;;5082411;28;20527;-69
2023/04/22 06:18:18;;;;;;;11.13;7.50;;;;;;;;;;5082396;28;20204;-69
2023/04/22 06:20:44;;;;;;;6.93;6.38;;;;;;;;;;5082568;28;20483;-69
2023/04/22 06:23:10;;;;;;;9.43;6.88;;;;;;;;;;5082353;28;20398;-69
2023/04/22 06:25:36;;;;;;;8.07;6.18;;;;;;;;;;5082630;28;20411;-69
2023/04/22 06:28:03;;;;;;;7.28;6.03;;;;;;;;;;5082064;28;20261;-69
2023/04/22 06:30:29;;;;;;;7.35;6.70;;;;;;;;;;5082309;28;20210;-69
2023/04/22 06:32:57;;;;;;;7.25;6.60;;;;;;;;;;5074011;28;20207;-69
2023/04/22 06:35:23;;;;;;;6.57;6.03;;;;;;;;;;5082622;28;20203;-69
2023/04/22 06:37:49;;;;;;;7.10;5.97;;;;;;;;;;5081965;28;20196;-70
2023/04/22 06:40:16;;;;;;;6.32;5.78;;;;;;;;;;5082193;28;20523;-70
2023/04/22 06:42:42;;;;;;;5.85;5.40;;;;;;;;;;5081978;28;20216;-69
2023/04/22 06:45:11;;;;;;;7.13;5.35;;;;;;;;;;5082052;28;20196;-69
2023/04/22 06:47:37;;;;;;;7.80;5.53;;;;;;;;;;5081935;28;20235;-69
2023/04/22 06:50:06;;;;;;;7.10;5.50;;;;;;;;;;5082060;28;20196;-69
2023/04/22 06:52:32;;;;;;;5.95;5.45;;;;;;;;;;5081947;28;20204;-69
2023/04/22 06:54:58;;;;;;;7.03;5.55;;;;;;;;;;5082114;28;20204;-69
2023/04/22 06:57:24;;;;;;;8.32;6.05;;;;;;;;;;5082340;28;20264;-69
2023/04/22 06:59:51;;;;;;;5.97;5.43;;;;;;;;;;5082037;28;20381;-69
2023/04/22 07:02:17;;;;;;;7.57;5.22;;;;;;;;;;5085786;28;20685;-70
2023/04/22 07:04:43;;;;;;;5.88;5.38;;;;;;;;;;5086387;28;20430;-70
2023/04/22 07:07:11;;;;;;;5.40;5.00;;;;;;;;;;5085962;28;20701;-70
2023/04/22 07:09:37;;;;;;;5.60;5.00;;;;;;;;;;5086385;28;20207;-70
2023/04/22 07:12:04;;;;;;;6.22;5.00;;;;;;;;;;5086279;28;20254;-70
2023/04/22 07:14:31;;;;;;;6.25;4.80;;;;;;;;;;5085880;28;20223;-70
2023/04/22 07:16:57;;;;;;;6.18;4.82;;;;;;;;;;5085676;28;20197;-70
2023/04/22 07:19:24;;;;;;;4.65;4.28;;;;;;;;;;5085885;28;20200;-71
2023/04/22 07:21:50;;;;;;;4.95;4.55;;;;;;;;;;5085723;28;20224;-70
2023/04/22 07:24:18;;;;;;;4.85;4.40;;;;;;;;;;5085695;28;20201;-70
2023/04/22 07:26:44;;;;;;;4.53;4.13;;;;;;;;;;5085357;28;20200;-70
2023/04/22 07:29:11;;;;;;;5.18;4.53;;;;;;;;;;5085229;28;20247;-70
2023/04/22 07:31:38;;;;;;;5.57;4.88;;;;;;;;;;5085606;28;20208;-70
2023/04/22 07:34:04;;;;;;;8.85;4.80;;;;;;;;;;5085398;28;20238;-70
2023/04/22 07:36:31;;;;;;;5.47;4.47;;;;;;;;;;5085430;28;20197;-70
2023/04/22 07:38:57;;;;;;;5.13;4.63;;;;;;;;;;5084985;28;20199;-70
2023/04/22 07:41:25;;;;;;;4.22;3.92;;;;;;;;;;5085344;28;20196;-71
2023/04/22 07:43:51;;;;;;;4.55;4.13;;;;;;;;;;5085098;28;20220;-70
2023/04/22 07:46:18;;;;;;;6.95;5.00;;;;;;;;;;5085349;28;20196;-70
2023/04/22 07:48:44;;;;;;;6.85;4.88;;;;;;;;;;5084877;28;20201;-70
2023/04/22 07:51:10;;;;;;;5.93;4.78;;;;;;;;;;5085207;28;20200;-70
2023/04/22 07:53:36;;;;;;;8.25;4.30;;;;;;;;;;5084965;28;20196;-70
2023/04/22 07:56:03;;;;;;;7.03;4.50;;;;;;;;;;5084972;28;20208;-70
2023/04/22 07:58:31;;;;;;;5.63;5.13;;;;;;;;;;5084935;28;20208;-70
2023/04/22 08:00:57;;;;;;;4.45;4.05;;;;;;;;;;5085037;28;20208;-70
2023/04/22 08:03:24;;;;;;;4.90;4.47;;;;;;;;;;5084966;28;20215;-70
2023/04/22 08:05:50;;;;;;;5.57;4.97;;;;;;;;;;5084815;28;20246;-70
2023/04/22 08:08:16;;;;;;;5.70;4.63;;;;;;;;;;5085019;28;20200;-70
2023/04/22 08:10:42;;;;;;;5.63;4.32;;;;;;;;;;5085328;28;20200;-62
2023/04/22 08:13:09;;;;;;;4.72;4.30;;;;;;;;;;5081809;28;20526;-62
2023/04/22 08:15:37;;;;;;;7.78;3.90;;;;;;;;;;5085137;28;20368;-62
2023/04/22 08:18:03;;;;;;;7.60;4.57;;;;;;;;;;5083564;28;20258;-62
2023/04/22 08:20:29;;;;;;;4.10;3.78;;;;;;;;;;5079293;28;20201;-62
2023/04/22 08:22:59;;;;;;;7.30;4.15;;;;;;;;;;5082657;28;20225;-62
2023/04/22 08:25:25;;;;;;;4.88;3.92;;;;;;;;;;5082823;28;20275;-62
2023/04/22 08:27:51;;;;;;;6.10;4.25;;;;;;;;;;5084274;28;20224;-62
2023/04/22 08:30:18;;;;;;;4.53;4.07;;;;;;;;;;5084759;28;20196;-62
2023/04/22 08:32:46;;;;;;;5.00;3.85;;;;;;;;;;5084344;28;20197;-62
2023/04/22 08:35:12;;;;;;;3.92;3.63;;;;;;;;;;5084624;28;20396;-62
2023/04/22 08:37:40;;;;;;;3.70;3.40;;;;;;;;;;5084460;28;20229;-62
2023/04/22 08:40:07;;;;;;;6.32;3.67;;;;;;;;;;5084459;28;20242;-62
2023/04/22 08:42:33;;;;;;;3.85;3.53;;;;;;;;;;5084583;28;20220;-62
2023/04/22 08:44:59;;;;;;;3.50;3.22;;;;;;;;;;5084266;28;20215;-62
2023/04/22 08:47:26;;;;;;;3.58;3.25;;;;;;;;;;5084131;28;20500;-62
2023/04/22 08:49:55;;;;;;;4.13;3.67;;;;;;;;;;5083486;28;20201;-62
2023/04/22 08:52:21;;;;;;;7.20;3.55;;;;;;;;;;5083509;28;20227;-62
2023/04/22 08:54:47;;;;;;;4.93;3.60;;;;;;;;;;5083288;28;20204;-62
2023/04/22 08:57:15;;;;;;;4.55;3.25;;;;;;;;;;5083136;28;20200;-62
2023/04/22 08:59:41;;;;;;;3.55;3.25;;;;;;;;;;5083024;28;20345;-62
2023/04/22 09:02:10;;;;;;;3.40;3.10;;;;;;;;;;5082868;28;20222;-62
2023/04/22 09:04:37;;;;;;;3.63;2.95;;;;;;;;;;5082375;28;20197;-62
2023/04/22 09:07:04;;;;;;;5.55;3.20;;;;;;;;;;5082329;28;20207;-62
2023/04/22 09:09:31;;;;;;;3.10;3.00;;;;;;;;;;5082805;28;20211;-62
2023/04/22 09:11:58;;;;;;;3.05;2.85;;;;;;;;;;5082485;28;20200;-62
2023/04/22 09:14:25;;;;;;;3.05;2.75;;;;;;;;;;5082390;28;20410;-62
2023/04/22 09:16:51;;;;;;;3.85;2.80;;;;;;;;;;5082147;28;20197;-62
2023/04/22 09:19:18;;;;;;;3.08;2.88;;;;;;;;;;5082323;28;20250;-62
2023/04/22 09:21:44;;;;;;;6.35;2.70;;;;;;;;;;5079034;28;20200;-63
2023/04/22 09:24:12;;;;;;;2.63;2.53;;;;;;;;;;5082142;28;20212;-63
2023/04/22 09:26:39;;;;;;;3.70;3.40;;;;;;;;;;5082560;28;20409;-62
2023/04/22 09:29:08;;;;;;;2.08;2.03;;;;;;;;;;5074187;28;20261;-62
2023/04/22 09:31:36;;;;;;;2.40;2.00;;;;;;;;;;5082663;28;20508;-62
2023/04/22 09:34:03;;;;;;;2.67;2.50;;;;;;;;;;5082545;28;20258;-62
2023/04/22 09:36:32;;;;;;;2.40;2.30;;;;;;;;;;5082933;28;20196;-62
2023/04/22 09:38:59;;;;;;;2.40;2.30;;;;;;;;;;5082700;28;20262;-62
2023/04/22 09:41:28;;;;;;;3.13;2.38;;;;;;;;;;5082581;28;20335;-62
2023/04/22 09:43:54;;;;;;;4.03;2.08;;;;;;;;;;5082254;28;20224;-62
2023/04/22 09:46:21;;;;;;;2.30;2.13;;;;;;;;;;5082012;28;20614;-70
2023/04/22 09:48:49;;;;;;;3.22;2.38;;;;;;;;;;5072619;28;20216;-70
2023/04/22 09:51:16;;;;;;;2.35;2.20;;;;;;;;;;5079905;28;20280;-70
2023/04/22 09:53:42;;;;;;;2.05;1.98;;;;;;;;;;5079494;28;20572;-70
2023/04/22 09:56:09;;;;;;;2.35;2.10;;;;;;;;;;5079398;28;20208;-70
2023/04/22 09:58:40;;;;;;;2.00;1.90;;;;;;;;;;5079336;28;20254;-70
2023/04/22 10:01:07;;;;;;;2.03;1.92;;;;;;;;;;5079239;28;20223;-70
2023/04/22 10:03:33;;;;;;;2.75;1.85;;;;;;;;;;5079801;28;20320;-70
2023/04/22 10:05:59;;;;;;;2.20;2.00;;;;;;;;;;5079023;28;20287;-70
2023/04/22 10:08:26;;;;;;;5.32;1.35;;;;;;;;;;5079509;28;20220;-70
2023/04/22 10:10:53;;;;;;;3.45;1.92;;;;;;;;;;5081761;28;20394;-70
2023/04/22 10:13:19;;;;;;;2.45;2.35;;;;;;;;;;5081710;28;20207;-70
2023/04/22 10:15:49;;;;;;;2.90;1.65;;;;;;;;;;5081534;28;20204;-70
2023/04/22 10:18:17;;;;;;;2.05;1.67;;;;;;;;;;5081647;28;20242;-70
2023/04/22 10:20:44;;;;;;;2.03;1.52;;;;;;;;;;5081472;28;20207;-70
2023/04/22 10:23:12;;;;;;;4.25;1.88;;;;;;;;;;5081587;28;20218;-70
2023/04/22 10:25:39;;;;;;;2.00;1.73;;;;;;;;;;5081451;28;20200;-70
2023/04/22 10:28:06;;;;;;;2.17;1.58;;;;;;;;;;5080964;28;20459;-70
2023/04/22 10:30:34;;;;;;;4.38;1.88;;;;;;;;;;5081588;28;20254;-70
2023/04/22 10:33:18;;;;;;;1.23;1.23;;;;;;;;;;5081126;28;20547;-70
2023/04/22 10:35:59;;;;;;;2.10;1.50;;;;;;;;;;5080275;28;20223;-71
2023/04/22 10:38:27;;;;;;;1.45;1.33;;;;;;;;;;5081442;28;20199;-71
2023/04/22 10:40:58;;;;;;;1.60;1.50;;;;;;;;;;5081881;28;20317;-71
2023/04/22 10:43:39;;;;;;;1.50;1.40;;;;;;;;;;5081499;28;20392;-71
2023/04/22 10:46:05;;;;;;;1.58;1.45;;;;;;;;;;5081195;28;20203;-71
2023/04/22 10:48:47;;;;;;;1.17;1.17;;;;;;;;;;5081263;28;20449;-71
2023/04/22 10:51:28;;;;;;;1.35;1.35;;;;;;;;;;5073703;28;20208;-71
2023/04/22 10:53:56;;;;;;;1.27;1.23;;;;;;;;;;5081780;28;20394;-71
2023/04/22 10:56:22;;;;;;;1.45;1.30;;;;;;;;;;5081923;28;20204;-71
2023/04/22 10:58:49;;;;;;;1.85;1.33;;;;;;;;;;5081464;28;20215;-71
2023/04/22 11:01:15;;;;;;;1.92;1.73;;;;;;;;;;5081609;28;20200;-71
2023/04/22 11:03:41;;;;;;;1.20;1.20;;;;;;;;;;5081298;28;20234;-71
2023/04/22 11:06:15;;;;;;;1.75;1.20;;;;;;;;;;5081273;28;20202;-71
2023/04/22 11:08:43;;;;;;;2.45;1.30;;;;;;;;;;5081070;28;20199;-71
2023/04/22 11:11:12;;;;;;;1.50;1.42;;;;;;;;;;5081122;28;20196;-71
2023/04/22 11:13:40;;;;;;;1.40;1.30;;;;;;;;;;5081080;28;20364;-71
2023/04/22 11:16:08;;;;;;;1.40;1.40;;;;;;;;;;5080874;28;20204;-71
2023/04/22 11:18:34;;;;;;;2.05;1.30;;;;;;;;;;5081054;28;20207;-71
2023/04/22 11:21:05;;;;;;;2.70;1.30;;;;;;;;;;5081162;28;20480;-71
2023/04/22 11:23:31;;;;;;;3.38;1.38;;;;;;;;;;5081088;28;20226;-71
2023/04/22 11:25:59;;;;;;;3.00;1.05;;;;;;;;;;5081191;28;20507;-71
2023/04/22 11:28:27;;;;;;;3.80;1.38;;;;;;;;;;5080647;28;20216;-71
2023/04/22 11:31:00;;;;;;;1.40;1.30;;;;;;;;;;5080647;28;20227;-71
2023/04/22 11:33:27;;;;;;;3.83;1.70;;;;;;;;;;5081112;28;20202;-71
2023/04/22 11:35:54;;;;;;;2.38;1.77;;;;;;;;;;5081527;28;20430;-71
2023/04/22 11:38:20;;;;;;;1.23;1.13;;;;;;;;;;5081417;28;20504;-71
2023/04/22 11:40:46;;;;;;;4.20;1.40;;;;;;;;;;5081529;28;20200;-71
2023/04/22 11:43:13;;;;;;;2.55;1.55;;;;;;;;;;5081347;28;20203;-71
2023/04/22 11:45:41;;;;;;;2.58;1.30;;;;;;;;;;5081567;28;20206;-71
2023/04/22 11:48:08;;;;;;;1.90;1.10;;;;;;;;;;5084462;28;20375;-71
2023/04/22 11:50:35;;;;;;;2.25;1.30;;;;;;;;;;5085215;28;20207;-70
2023/04/22 11:53:02;;;;;;;1.15;1.05;;;;;;;;;;5085055;28;20200;-71
2023/04/22 11:55:29;;;;;;;1.40;1.30;;;;;;;;;;5085241;28;20200;-71
2023/04/22 11:57:56;;;;;;;1.02;1.02;;;;;;;;;;5084692;28;20208;-71
2023/04/22 12:00:24;;;;;;;1.67;1.40;;;;;;;;;;5084970;28;20196;-71
2023/04/22 12:02:58;;;;;;;1.77;1.55;;;;;;;;;;5084915;28;20271;-71
2023/04/22 12:05:35;;;;;;;0.90;0.90;;;;;;;;;;5085045;28;20212;-71
2023/04/22 12:08:02;;;;;;;1.10;1.10;;;;;;;;;;5085021;28;20200;-70
2023/04/22 12:10:28;;;;;;;6.63;1.20;;;;;;;;;;5084914;28;20238;-70
2023/04/22 12:12:54;;;;;;;1.00;0.90;;;;;;;;;;5084414;28;20238;-70
2023/04/22 12:15:21;;;;;;;1.60;1.00;;;;;;;;;;5084920;28;20191;-70
2023/04/22 12:17:49;;;;;;;3.72;1.27;;;;;;;;;;5084559;28;20204;-70
2023/04/22 12:20:17;;;;;;;2.95;1.05;;;;;;;;;;5084762;28;20242;-70
2023/04/22 12:22:43;;;;;;;2.65;1.30;;;;;;;;;;5084409;28;20215;-69
2023/04/22 12:25:09;;;;;;;2.75;1.27;;;;;;;;;;5084599;28;20223;-69
2023/04/22 12:27:36;;;;;;;1.10;1.00;;;;;;;;;;5084249;28;20246;-70
2023/04/22 12:30:02;;;;;;;2.00;1.10;;;;;;;;;;5084632;28;20215;-70
2023/04/22 12:32:29;;;;;;;1.30;1.05;;;;;;;;;;5084724;28;20526;-70
2023/04/22 12:34:55;;;;;;;1.33;1.00;;;;;;;;;;5084274;28;20405;-70
2023/04/22 12:37:23;;;;;;;5.07;1.30;;;;;;;;;;5084152;28;20219;-70
2023/04/22 12:39:49;;;;;;;0.80;0.80;;;;;;;;;;5084537;28;20203;-69
2023/04/22 12:42:16;;;;;;;1.40;1.30;;;;;;;;;;5084117;28;20196;-69
2023/04/22 12:44:43;;;;;;;1.38;1.38;;;;;;;;;;5084069;28;20227;-69
2023/04/22 12:47:09;;;;;;;1.27;1.17;;;;;;;;;;5084031;28;20263;-69
2023/04/22 12:49:37;;;;;;;1.42;1.20;;;;;;;;;;5084078;28;20208;-69
2023/04/22 12:52:03;;;;;;;2.80;1.00;;;;;;;;;;5083884;28;20271;-69
2023/04/22 12:54:31;;;;;;;2.00;1.38;;;;;;;;;;5083833;28;20203;-69
2023/04/22 12:56:57;;;;;;;1.60;1.10;;;;;;;;;;5083898;28;20230;-70
2023/04/22 12:59:23;;;;;;;2.00;1.13;;;;;;;;;;5083225;28;20195;-70
2023/04/22 13:01:50;;;;;;;1.15;1.05;;;;;;;;;;5083778;28;20210;-69
2023/04/22 13:04:18;;;;;;;2.25;1.13;;;;;;;;;;5083859;28;20547;-69
2023/04/22 13:06:44;;;;;;;2.35;1.20;;;;;;;;;;5083928;28;20207;-69
2023/04/22 13:09:10;;;;;;;1.15;1.10;;;;;;;;;;5083643;28;20253;-69
2023/04/22 13:11:38;;;;;;;1.50;1.40;;;;;;;;;;5083601;28;20527;-69
2023/04/22 13:14:04;;;;;;;1.58;1.35;;;;;;;;;;5083538;28;20262;-69
2023/04/22 13:16:30;;;;;;;3.22;1.40;;;;;;;;;;5083456;28;20196;-69
2023/04/22 13:18:57;;;;;;;3.20;1.20;;;;;;;;;;5083234;28;20275;-69
2023/04/22 13:21:23;;;;;;;3.95;1.40;;;;;;;;;;5083241;28;20259;-69
2023/04/22 13:23:49;;;;;;;3.55;1.38;;;;;;;;;;5083278;28;20253;-69
2023/04/22 13:26:15;;;;;;;1.55;1.13;;;;;;;;;;5083063;28;20203;-69
2023/04/22 13:28:43;;;;;;;2.50;1.17;;;;;;;;;;5083104;28;20220;-69
2023/04/22 13:31:10;;;;;;;1.50;1.40;;;;;;;;;;5083220;28;20203;-69
2023/04/22 13:33:36;;;;;;;1.23;1.13;;;;;;;;;;5082944;28;20212;-69
2023/04/22 13:36:02;;;;;;;2.60;1.23;;;;;;;;;;5082985;28;20204;-69
2023/04/22 13:38:28;;;;;;;1.85;1.00;;;;;;;;;;5082688;28;20242;-69
2023/04/22 13:40:55;;;;;;;2.40;1.27;;;;;;;;;;5082903;28;20200;-69
2023/04/22 13:43:21;;;;;;;1.95;1.45;;;;;;;;;;5074662;28;20192;-69
2023/04/22 13:45:49;;;;;;;2.42;1.30;;;;;;;;;;5082834;28;20245;-69
2023/04/22 13:48:15;;;;;;;1.50;1.23;;;;;;;;;;5082317;28;20276;-69
2023/04/22 13:50:42;;;;;;;2.50;1.30;;;;;;;;;;5082878;28;20212;-69
2023/04/22 13:53:09;;;;;;;2.40;1.50;;;;;;;;;;5082630;28;20219;-69
2023/04/22 13:55:35;;;;;;;1.38;1.15;;;;;;;;;;5082659;28;20409;-69
2023/04/22 13:58:01;;;;;;;1.65;1.52;;;;;;;;;;5082242;28;20200;-69
2023/04/22 14:00:28;;;;;;;2.13;1.38;;;;;;;;;;5082572;28;20399;-69
2023/04/22 14:02:55;;;;;;;1.88;1.55;;;;;;;;;;5082775;28;20204;-69
2023/04/22 14:05:22;;;;;;;8.57;1.67;;;;;;;;;;5082517;28;20212;-69
2023/04/22 14:07:48;;;;;;;3.95;1.27;;;;;;;;;;5082393;28;20207;-69
2023/04/22 14:10:15;;;;;;;1.63;1.23;;;;;;;;;;5082085;28;20253;-69
2023/04/22 14:12:41;;;;;;;2.95;1.10;;;;;;;;;;5082249;28;20226;-69
2023/04/22 14:15:09;;;;;;;1.65;1.40;;;;;;;;;;5081971;28;20206;-69
2023/04/22 14:17:36;;;;;;;3.75;1.50;;;;;;;;;;5082244;28;20245;-69
2023/04/22 14:20:04;;;;;;;3.53;1.20;;;;;;;;;;5082277;28;20538;-69
2023/04/22 14:22:30;;;;;;;4.18;1.20;;;;;;;;;;5082389;28;20397;-69
2023/04/22 14:24:56;;;;;;;2.25;1.02;;;;;;;;;;5082341;28;20558;-70
2023/04/22 14:27:23;;;;;;;1.17;1.02;;;;;;;;;;5073584;28;20543;-70
2023/04/22 14:29:51;;;;;;;2.67;1.10;;;;;;;;;;5082138;28;20203;-70
2023/04/22 14:32:17;;;;;;;3.17;1.08;;;;;;;;;;5081996;28;20195;-70
2023/04/22 14:34:44;;;;;;;2.58;1.50;;;;;;;;;;5081989;28;20211;-70
2023/04/22 14:37:11;;;;;;;3.40;2.00;;;;;;;;;;5081893;28;20245;-70
2023/04/22 14:39:38;;;;;;;5.22;1.67;;;;;;;;;;5082015;28;20245;-69
2023/04/22 14:42:04;;;;;;;1.85;1.70;;;;;;;;;;5082151;28;20214;-69